Flight Track Log - Related Links

Times and Time Zones

All times are in EST time to prevent confusion due to time zone crossing. See the BOE1 flight status page for this flight to view local times or setup timezone preferences in your user account.

Time Position Orientation Groundspeed Altitude Reporting Facility
EST Latitude Longitude Course Direction KTS MPH feet Rate Location/Type
Fri 04:13:06 PM 47.5283 -122.0490 12° North 4,000  Level Seattle Center
Fri 04:14:06 PM 47.6119 -122.0220 359° North 282 325 4,000  Level Seattle Center
Fri 04:15:18 PM 47.6703 -122.0240 344° North 294 338 4,000  Level Seattle Center
Fri 04:16:18 PM 47.7467 -122.0560 339° North 265 305 4,000  Level Seattle Center
Fri 04:17:18 PM 47.8106 -122.0920 343° North 245 282 4,000  Level Seattle Center
Fri 04:18:18 PM 47.8806 -122.1230 357° North 250 288 4,000 -400 Level Seattle Center
Fri 04:19:18 PM 47.9553 -122.1290 356° North 255 293 3,200 -500 Descending Seattle Center
Fri 04:20:18 PM 48.0281 -122.1360 355° North 255 293 3,000 -100 Descending Seattle Center
Fri 04:21:18 PM 48.0986 -122.1450 343° North 244 281 3,000  Level Seattle Center
Fri 04:22:18 PM 48.1564 -122.1720 295° West 231 266 3,000  Level Seattle Center
Fri 04:23:18 PM 48.1797 -122.2480 264° West 199 229 3,000  Level Seattle Center
Fri 04:24:18 PM 48.1739 -122.3260 178° South 178 205 3,000  Level Seattle Center
Fri 04:25:18 PM 48.1322 -122.3240 152° Southeast 97 112 3,000  Level Seattle Center
Fri 04:26:30 PM 48.0914 -122.2910 178° South 115 132 3,000 -45 Level Seattle Center
Fri 04:27:30 PM 48.0417 -122.2880 178° South 141 162 2,900 -450 Descending Seattle Center
Fri 04:28:30 PM 47.9978 -122.2860 181° South 154 177 2,100 -800 Descending Seattle Center
Fri 04:29:30 PM 47.9542 -122.2870 195° South 160 184 1,300 -450 Descending Seattle Center
Fri 04:30:30 PM 47.9122 -122.3040 201° Southwest 160 184 1,200 -50 Descending Seattle Center
Fri 04:31:30 PM 47.8722 -122.3270 88° East 160 184 1,200 -50 Level Seattle Center
Fri 04:32:30 PM 47.8731 -122.2860 88° East 60 69 1,100 -100 Descending Seattle Center

Login

Don't have an account? Register now (free) for customized features, flight alerts, and more!